Skip Navigation LinksHome page > Weather > Current weather Skip Navigation Links

Current Weather

Ithaca Tompkins Regional, Ithaca, N.Y.

For information only: do not use for flight planning or navigation.
Latest weather
Observation time Monday, May 22, 2017 11:16 AM EDT
Local time Monday, May 22, 2017 11:39 AM EDT
Flight conditions Marginal Visual Meteorological Conditions
Winds
Wind direction South-Southeast (150°)
Wind speed 8 mph
Visibility 3 mi.
Present weather heavy rain, mist
Sky condition
Ceiling 1,700 ft. broken clouds
Cloud layer broken clouds 1,700 ft.
Cloud layer overcast 3,000 ft.
Temperature 57°F
Dewpoint 54°F
Altimeter 29.99 in.Hg
Precipitation
Precipitation last hour 0.05 in.
Derived measurements
Relative humidity 88%
Density altitude 1098 ft.
Remarks
Automated weather observing station with precipitation discriminator.
METAR KITH 221516Z 15007KT 3SM R32/4500VP6000FT +RA BR BKN017 OVC030 14/12 A2999 RMK AO2 P0005

Settings

Location code

InnerDrive.Weather 4.0.6144.1 Release CLR 4.0.30319.36366
Copyright ©2015 Inner Drive Technology. All rights reserved. Portions Copyright ©1986-2015 David Braverman.

Find weather

Site navigation


Skip Navigation Links

Place info

Page info

PayPal - The safer, easier way to pay online!

Return home.

Copyright ©2017 Inner Drive Technology. Purveyors of fine, hand-crafted computer software. Page printed 2017-05-22T15:39:52 UTC.